sensor_id;sensor_type;location;lat;lon;timestamp;pressure;altitude;pressure_sealevel;temperature;humidity
41573;BME280;27286;47.870;19.006;2023-10-31T00:01:23;98350.75;;;13.13;87.62
41573;BME280;27286;47.870;19.006;2023-10-31T00:03:49;98322.13;;;12.99;87.50
41573;BME280;27286;47.870;19.006;2023-10-31T00:06:14;98351.19;;;13.19;87.36
41573;BME280;27286;47.870;19.006;2023-10-31T00:08:39;98348.34;;;13.22;87.17
41573;BME280;27286;47.870;19.006;2023-10-31T00:11:05;98365.50;;;13.27;87.51
41573;BME280;27286;47.870;19.006;2023-10-31T00:13:30;98354.09;;;13.15;88.30
41573;BME280;27286;47.870;19.006;2023-10-31T00:15:56;98338.81;;;13.09;88.54
41573;BME280;27286;47.870;19.006;2023-10-31T00:18:21;98327.13;;;13.02;88.79
41573;BME280;27286;47.870;19.006;2023-10-31T00:20:47;98331.72;;;12.98;88.77
41573;BME280;27286;47.870;19.006;2023-10-31T00:23:13;98340.19;;;13.14;88.60
41573;BME280;27286;47.870;19.006;2023-10-31T00:25:39;98331.63;;;13.12;88.43
41573;BME280;27286;47.870;19.006;2023-10-31T00:28:04;98335.06;;;13.13;88.46
41573;BME280;27286;47.870;19.006;2023-10-31T00:30:29;98324.09;;;13.08;88.84
41573;BME280;27286;47.870;19.006;2023-10-31T00:32:55;98337.47;;;13.16;89.34
41573;BME280;27286;47.870;19.006;2023-10-31T00:35:20;98294.22;;;12.99;89.02
41573;BME280;27286;47.870;19.006;2023-10-31T00:37:46;98330.06;;;13.22;88.92
41573;BME280;27286;47.870;19.006;2023-10-31T00:40:11;98319.81;;;13.19;88.75
41573;BME280;27286;47.870;19.006;2023-10-31T00:42:37;98317.94;;;13.21;89.07
41573;BME280;27286;47.870;19.006;2023-10-31T00:45:03;98300.28;;;13.12;89.37
41573;BME280;27286;47.870;19.006;2023-10-31T00:47:29;98295.66;;;13.03;89.34
41573;BME280;27286;47.870;19.006;2023-10-31T00:49:54;98303.19;;;13.08;89.32
41573;BME280;27286;47.870;19.006;2023-10-31T00:52:19;98326.28;;;13.27;88.89
41573;BME280;27286;47.870;19.006;2023-10-31T00:54:45;98289.94;;;13.11;88.69
41573;BME280;27286;47.870;19.006;2023-10-31T00:57:10;98289.41;;;13.18;88.41
41573;BME280;27286;47.870;19.006;2023-10-31T00:59:36;98295.78;;;13.27;88.09
41573;BME280;27286;47.870;19.006;2023-10-31T01:02:01;98213.97;;;12.88;88.30
41573;BME280;27286;47.870;19.006;2023-10-31T01:04:27;98288.84;;;13.26;88.35
41573;BME280;27286;47.870;19.006;2023-10-31T01:06:52;98258.34;;;13.14;88.39
41573;BME280;27286;47.870;19.006;2023-10-31T01:09:18;98273.09;;;13.28;88.75
41573;BME280;27286;47.870;19.006;2023-10-31T01:11:43;98267.13;;;13.25;88.70
41573;BME280;27286;47.870;19.006;2023-10-31T01:14:09;98225.47;;;12.99;88.42
41573;BME280;27286;47.870;19.006;2023-10-31T01:16:34;98259.91;;;13.16;88.29
41573;BME280;27286;47.870;19.006;2023-10-31T01:19:00;98225.69;;;12.95;88.21
41573;BME280;27286;47.870;19.006;2023-10-31T01:21:25;98271.13;;;13.18;88.35
41573;BME280;27286;47.870;19.006;2023-10-31T01:23:51;98247.91;;;13.14;87.77
41573;BME280;27286;47.870;19.006;2023-10-31T01:26:16;98261.16;;;13.23;87.74
41573;BME280;27286;47.870;19.006;2023-10-31T01:28:41;98248.63;;;13.16;87.72
41573;BME280;27286;47.870;19.006;2023-10-31T01:31:07;98236.63;;;13.13;87.50
41573;BME280;27286;47.870;19.006;2023-10-31T01:33:33;98264.81;;;13.34;87.33
41573;BME280;27286;47.870;19.006;2023-10-31T01:35:59;98249.03;;;13.22;88.01
41573;BME280;27286;47.870;19.006;2023-10-31T01:38:24;98223.56;;;13.13;88.03
41573;BME280;27286;47.870;19.006;2023-10-31T01:40:50;98218.84;;;13.06;88.47
41573;BME280;27286;47.870;19.006;2023-10-31T01:43:34;98243.19;;;13.32;88.64
41573;BME280;27286;47.870;19.006;2023-10-31T01:46:00;98247.47;;;13.33;88.53
41573;BME280;27286;47.870;19.006;2023-10-31T01:48:27;98238.59;;;13.22;88.21
41573;BME280;27286;47.870;19.006;2023-10-31T01:50:54;98222.31;;;13.19;88.43
41573;BME280;27286;47.870;19.006;2023-10-31T01:53:20;98236.09;;;13.21;88.67
41573;BME280;27286;47.870;19.006;2023-10-31T01:55:46;98233.97;;;13.26;88.72
41573;BME280;27286;47.870;19.006;2023-10-31T01:58:12;98230.34;;;13.29;88.46
41573;BME280;27286;47.870;19.006;2023-10-31T02:00:40;98211.00;;;13.18;88.30
41573;BME280;27286;47.870;19.006;2023-10-31T02:03:06;98202.00;;;13.22;88.45
41573;BME280;27286;47.870;19.006;2023-10-31T02:05:34;98213.72;;;13.30;88.30
41573;BME280;27286;47.870;19.006;2023-10-31T02:08:00;98203.91;;;13.20;88.72
41573;BME280;27286;47.870;19.006;2023-10-31T02:10:26;98218.94;;;13.30;88.67
41573;BME280;27286;47.870;19.006;2023-10-31T02:12:51;98159.31;;;12.98;88.63
41573;BME280;27286;47.870;19.006;2023-10-31T02:15:16;98180.56;;;13.17;88.42
41573;BME280;27286;47.870;19.006;2023-10-31T02:17:42;98218.25;;;13.39;88.19
41573;BME280;27286;47.870;19.006;2023-10-31T02:20:08;98215.66;;;13.39;87.97
41573;BME280;27286;47.870;19.006;2023-10-31T02:22:33;98215.75;;;13.37;88.07
41573;BME280;27286;47.870;19.006;2023-10-31T02:24:59;98147.47;;;13.05;87.57
41573;BME280;27286;47.870;19.006;2023-10-31T02:27:24;98165.41;;;13.22;87.56
41573;BME280;27286;47.870;19.006;2023-10-31T02:29:50;98148.72;;;13.12;87.87
41573;BME280;27286;47.870;19.006;2023-10-31T02:32:15;98197.91;;;13.31;87.46
41573;BME280;27286;47.870;19.006;2023-10-31T02:34:41;98171.38;;;13.24;87.33
41573;BME280;27286;47.870;19.006;2023-10-31T02:37:06;98193.47;;;13.44;86.80
41573;BME280;27286;47.870;19.006;2023-10-31T02:39:32;98168.34;;;13.31;86.45
41573;BME280;27286;47.870;19.006;2023-10-31T02:41:58;98157.88;;;13.31;86.05
41573;BME280;27286;47.870;19.006;2023-10-31T02:44:23;98160.03;;;13.37;86.11
41573;BME280;27286;47.870;19.006;2023-10-31T02:46:49;98174.94;;;13.47;86.36
41573;BME280;27286;47.870;19.006;2023-10-31T02:49:14;98141.78;;;13.24;86.40
41573;BME280;27286;47.870;19.006;2023-10-31T02:51:40;98171.09;;;13.40;86.70
41573;BME280;27286;47.870;19.006;2023-10-31T02:54:05;98120.47;;;13.17;87.09
41573;BME280;27286;47.870;19.006;2023-10-31T02:56:31;98097.47;;;12.99;86.74
41573;BME280;27286;47.870;19.006;2023-10-31T02:58:56;98169.59;;;13.25;87.16
41573;BME280;27286;47.870;19.006;2023-10-31T03:01:22;98175.00;;;13.35;86.61
41573;BME280;27286;47.870;19.006;2023-10-31T03:03:47;98102.38;;;12.90;86.57
41573;BME280;27286;47.870;19.006;2023-10-31T03:06:12;98174.41;;;13.31;86.63
41573;BME280;27286;47.870;19.006;2023-10-31T03:08:38;98160.19;;;13.22;86.12
41573;BME280;27286;47.870;19.006;2023-10-31T03:11:03;98151.81;;;13.17;85.87
41573;BME280;27286;47.870;19.006;2023-10-31T03:13:29;98135.97;;;13.08;85.28
41573;BME280;27286;47.870;19.006;2023-10-31T03:15:54;98161.31;;;13.31;84.91
41573;BME280;27286;47.870;19.006;2023-10-31T03:18:20;98180.28;;;13.46;84.93
41573;BME280;27286;47.870;19.006;2023-10-31T03:20:45;98157.19;;;13.40;85.10
41573;BME280;27286;47.870;19.006;2023-10-31T03:23:12;98176.72;;;13.47;85.45
41573;BME280;27286;47.870;19.006;2023-10-31T03:25:37;98147.34;;;13.19;85.85
41573;BME280;27286;47.870;19.006;2023-10-31T03:28:03;98122.78;;;13.09;85.59
41573;BME280;27286;47.870;19.006;2023-10-31T03:30:28;98133.47;;;13.19;85.34
41573;BME280;27286;47.870;19.006;2023-10-31T03:32:54;98163.47;;;13.37;85.28
41573;BME280;27286;47.870;19.006;2023-10-31T03:35:20;98072.91;;;12.77;85.05
41573;BME280;27286;47.870;19.006;2023-10-31T03:37:45;98184.81;;;13.44;85.59
41573;BME280;27286;47.870;19.006;2023-10-31T03:40:11;98176.22;;;13.42;85.53
41573;BME280;27286;47.870;19.006;2023-10-31T03:42:36;98153.72;;;13.28;84.38
41573;BME280;27286;47.870;19.006;2023-10-31T03:45:02;98157.16;;;13.29;84.47
41573;BME280;27286;47.870;19.006;2023-10-31T03:47:27;98083.41;;;12.76;84.24
41573;BME280;27286;47.870;19.006;2023-10-31T03:49:53;98160.53;;;13.18;83.30
41573;BME280;27286;47.870;19.006;2023-10-31T03:52:18;98188.06;;;13.35;79.29
41573;BME280;27286;47.870;19.006;2023-10-31T03:54:45;98192.00;;;13.40;79.50
41573;BME280;27286;47.870;19.006;2023-10-31T03:57:10;98215.03;;;13.59;79.98
41573;BME280;27286;47.870;19.006;2023-10-31T03:59:37;98159.78;;;13.29;78.18
41573;BME280;27286;47.870;19.006;2023-10-31T04:02:03;98211.94;;;13.54;79.05
41573;BME280;27286;47.870;19.006;2023-10-31T04:04:28;98206.31;;;13.47;79.80
41573;BME280;27286;47.870;19.006;2023-10-31T04:06:54;98223.63;;;13.61;80.00
41573;BME280;27286;47.870;19.006;2023-10-31T04:09:19;98198.13;;;13.52;80.23
41573;BME280;27286;47.870;19.006;2023-10-31T04:11:45;98202.75;;;13.48;81.67
41573;BME280;27286;47.870;19.006;2023-10-31T04:14:10;98211.81;;;13.55;82.31
41573;BME280;27286;47.870;19.006;2023-10-31T04:16:39;98148.50;;;13.15;82.54
41573;BME280;27286;47.870;19.006;2023-10-31T04:19:06;98185.72;;;13.43;83.49
41573;BME280;27286;47.870;19.006;2023-10-31T04:21:32;98189.69;;;13.48;83.95
41573;BME280;27286;47.870;19.006;2023-10-31T04:23:57;98181.72;;;13.50;83.76
41573;BME280;27286;47.870;19.006;2023-10-31T04:26:23;98174.34;;;13.44;83.84
41573;BME280;27286;47.870;19.006;2023-10-31T04:28:48;98165.63;;;13.43;84.54
41573;BME280;27286;47.870;19.006;2023-10-31T04:31:14;98174.53;;;13.41;85.79
41573;BME280;27286;47.870;19.006;2023-10-31T04:33:39;98169.88;;;13.33;85.13
41573;BME280;27286;47.870;19.006;2023-10-31T04:36:05;98157.47;;;13.24;85.66
41573;BME280;27286;47.870;19.006;2023-10-31T04:38:30;98118.41;;;13.10;84.43
41573;BME280;27286;47.870;19.006;2023-10-31T04:40:56;98123.72;;;13.21;83.78
41573;BME280;27286;47.870;19.006;2023-10-31T04:43:21;98168.25;;;13.43;84.75
41573;BME280;27286;47.870;19.006;2023-10-31T04:45:46;98173.81;;;13.39;86.09
41573;BME280;27286;47.870;19.006;2023-10-31T04:48:13;98050.22;;;12.78;86.04
41573;BME280;27286;47.870;19.006;2023-10-31T04:50:38;98131.44;;;13.22;86.87
41573;BME280;27286;47.870;19.006;2023-10-31T04:53:04;98106.41;;;13.07;86.24
41573;BME280;27286;47.870;19.006;2023-10-31T04:55:29;98093.34;;;13.07;85.59
41573;BME280;27286;47.870;19.006;2023-10-31T04:57:55;98119.09;;;13.24;85.44
41573;BME280;27286;47.870;19.006;2023-10-31T05:00:20;98144.00;;;13.41;84.99
41573;BME280;27286;47.870;19.006;2023-10-31T05:02:46;98133.19;;;13.35;85.63
41573;BME280;27286;47.870;19.006;2023-10-31T05:05:11;98116.06;;;13.31;86.37
41573;BME280;27286;47.870;19.006;2023-10-31T05:07:37;98071.72;;;13.05;86.59
41573;BME280;27286;47.870;19.006;2023-10-31T05:10:02;98104.25;;;13.25;86.76
41573;BME280;27286;47.870;19.006;2023-10-31T05:12:28;98064.34;;;12.99;87.19
41573;BME280;27286;47.870;19.006;2023-10-31T05:14:53;98115.84;;;13.34;86.96
41573;BME280;27286;47.870;19.006;2023-10-31T05:17:18;98104.59;;;13.20;87.05
41573;BME280;27286;47.870;19.006;2023-10-31T05:19:44;98115.66;;;13.24;87.17
41573;BME280;27286;47.870;19.006;2023-10-31T05:22:09;98123.19;;;13.29;87.03
41573;BME280;27286;47.870;19.006;2023-10-31T05:24:35;98129.56;;;13.24;86.91
41573;BME280;27286;47.870;19.006;2023-10-31T05:27:01;98082.50;;;13.01;86.02
41573;BME280;27286;47.870;19.006;2023-10-31T05:29:26;98149.50;;;13.25;86.43
41573;BME280;27286;47.870;19.006;2023-10-31T05:31:52;98087.72;;;12.77;86.31
41573;BME280;27286;47.870;19.006;2023-10-31T05:34:17;98145.19;;;13.01;85.60
41573;BME280;27286;47.870;19.006;2023-10-31T05:36:43;98158.75;;;13.18;85.64
41573;BME280;27286;47.870;19.006;2023-10-31T05:39:08;98170.41;;;13.25;86.67
41573;BME280;27286;47.870;19.006;2023-10-31T05:41:35;98179.22;;;13.24;87.26
41573;BME280;27286;47.870;19.006;2023-10-31T05:44:00;98190.19;;;13.30;87.67
41573;BME280;27286;47.870;19.006;2023-10-31T05:46:26;98179.22;;;13.24;89.56
41573;BME280;27286;47.870;19.006;2023-10-31T05:48:52;98161.84;;;13.23;90.32
41573;BME280;27286;47.870;19.006;2023-10-31T05:51:18;98152.78;;;13.16;90.88
41573;BME280;27286;47.870;19.006;2023-10-31T05:53:47;98115.25;;;12.93;91.77
41573;BME280;27286;47.870;19.006;2023-10-31T05:56:15;98146.41;;;13.08;92.26
41573;BME280;27286;47.870;19.006;2023-10-31T05:58:41;98106.78;;;12.90;92.48
41573;BME280;27286;47.870;19.006;2023-10-31T06:01:07;98097.84;;;12.81;93.51
41573;BME280;27286;47.870;19.006;2023-10-31T06:03:33;98135.69;;;13.00;93.66
41573;BME280;27286;47.870;19.006;2023-10-31T06:05:59;98133.19;;;12.98;94.42
41573;BME280;27286;47.870;19.006;2023-10-31T06:08:25;98128.50;;;12.90;93.00
41573;BME280;27286;47.870;19.006;2023-10-31T06:10:53;98115.78;;;12.86;92.24
41573;BME280;27286;47.870;19.006;2023-10-31T06:13:19;98136.91;;;13.07;89.76
41573;BME280;27286;47.870;19.006;2023-10-31T06:15:44;98109.47;;;13.01;89.08
41573;BME280;27286;47.870;19.006;2023-10-31T06:18:10;98097.56;;;12.97;89.03
41573;BME280;27286;47.870;19.006;2023-10-31T06:20:35;98106.84;;;13.01;90.03
41573;BME280;27286;47.870;19.006;2023-10-31T06:23:01;98137.00;;;13.18;90.23
41573;BME280;27286;47.870;19.006;2023-10-31T06:25:29;98111.34;;;12.99;89.36
41573;BME280;27286;47.870;19.006;2023-10-31T06:27:54;98055.88;;;12.72;89.20
41573;BME280;27286;47.870;19.006;2023-10-31T06:30:20;98113.19;;;13.10;88.96
41573;BME280;27286;47.870;19.006;2023-10-31T06:32:45;98103.75;;;12.96;89.13
41573;BME280;27286;47.870;19.006;2023-10-31T06:35:11;98113.03;;;13.00;90.09
41573;BME280;27286;47.870;19.006;2023-10-31T06:37:36;98104.00;;;13.04;89.99
41573;BME280;27286;47.870;19.006;2023-10-31T06:40:02;98112.34;;;13.09;89.59
41573;BME280;27286;47.870;19.006;2023-10-31T06:42:28;98070.31;;;12.88;90.47
41573;BME280;27286;47.870;19.006;2023-10-31T06:44:54;98099.13;;;13.00;90.67
41573;BME280;27286;47.870;19.006;2023-10-31T06:47:19;98074.00;;;12.86;89.56
41573;BME280;27286;47.870;19.006;2023-10-31T06:49:44;98126.56;;;13.18;90.40
41573;BME280;27286;47.870;19.006;2023-10-31T06:52:10;98106.81;;;13.14;90.55
41573;BME280;27286;47.870;19.006;2023-10-31T06:54:35;98106.69;;;13.15;89.55
41573;BME280;27286;47.870;19.006;2023-10-31T06:57:01;98090.47;;;12.99;88.31
41573;BME280;27286;47.870;19.006;2023-10-31T06:59:29;98134.47;;;13.29;87.97
41573;BME280;27286;47.870;19.006;2023-10-31T07:01:55;98126.34;;;13.21;87.89
41573;BME280;27286;47.870;19.006;2023-10-31T07:04:20;98135.44;;;13.39;86.95
41573;BME280;27286;47.870;19.006;2023-10-31T07:06:46;98097.59;;;13.21;87.20
41573;BME280;27286;47.870;19.006;2023-10-31T07:09:11;98107.03;;;13.35;87.62
41573;BME280;27286;47.870;19.006;2023-10-31T07:11:37;98119.66;;;13.41;86.70
41573;BME280;27286;47.870;19.006;2023-10-31T07:14:02;98100.03;;;13.35;87.35
41573;BME280;27286;47.870;19.006;2023-10-31T07:16:28;98124.47;;;13.58;89.15
41573;BME280;27286;47.870;19.006;2023-10-31T07:18:54;98071.28;;;13.35;87.83
41573;BME280;27286;47.870;19.006;2023-10-31T07:21:20;98122.69;;;13.59;88.23
41573;BME280;27286;47.870;19.006;2023-10-31T07:23:45;98084.72;;;13.42;88.30
41573;BME280;27286;47.870;19.006;2023-10-31T07:26:11;98095.81;;;13.45;87.31
41573;BME280;27286;47.870;19.006;2023-10-31T07:28:36;98033.88;;;13.11;87.24
41573;BME280;27286;47.870;19.006;2023-10-31T07:31:02;98117.34;;;13.60;87.40
41573;BME280;27286;47.870;19.006;2023-10-31T07:33:27;98121.53;;;13.63;87.70
41573;BME280;27286;47.870;19.006;2023-10-31T07:35:53;98086.50;;;13.41;88.17
41573;BME280;27286;47.870;19.006;2023-10-31T07:38:18;98102.94;;;13.54;88.99
41573;BME280;27286;47.870;19.006;2023-10-31T07:40:43;98093.72;;;13.62;89.10
41573;BME280;27286;47.870;19.006;2023-10-31T07:43:09;98070.75;;;13.54;87.83
41573;BME280;27286;47.870;19.006;2023-10-31T07:45:34;98043.72;;;13.42;88.24
41573;BME280;27286;47.870;19.006;2023-10-31T07:48:01;98070.53;;;13.68;89.00
41573;BME280;27286;47.870;19.006;2023-10-31T07:50:27;98060.44;;;13.64;90.01
41573;BME280;27286;47.870;19.006;2023-10-31T07:52:52;98082.19;;;13.75;90.17
41573;BME280;27286;47.870;19.006;2023-10-31T07:55:18;98097.78;;;13.77;89.82
41573;BME280;27286;47.870;19.006;2023-10-31T07:57:44;98093.59;;;13.74;89.52
41573;BME280;27286;47.870;19.006;2023-10-31T08:00:10;98096.50;;;13.82;89.05
41573;BME280;27286;47.870;19.006;2023-10-31T08:02:36;98057.59;;;13.67;87.26
41573;BME280;27286;47.870;19.006;2023-10-31T08:05:02;98004.16;;;13.36;87.29
41573;BME280;27286;47.870;19.006;2023-10-31T08:07:27;98083.28;;;13.84;86.75
41573;BME280;27286;47.870;19.006;2023-10-31T08:09:55;98117.22;;;14.08;88.63
41573;BME280;27286;47.870;19.006;2023-10-31T08:12:21;98008.22;;;13.51;89.76
41573;BME280;27286;47.870;19.006;2023-10-31T08:14:47;98102.34;;;14.08;88.94
41573;BME280;27286;47.870;19.006;2023-10-31T08:17:12;98106.91;;;14.29;87.46
41573;BME280;27286;47.870;19.006;2023-10-31T08:19:37;98081.06;;;14.24;87.78
41573;BME280;27286;47.870;19.006;2023-10-31T08:22:03;98101.09;;;14.48;88.35
41573;BME280;27286;47.870;19.006;2023-10-31T08:24:28;97970.56;;;13.65;89.55
41573;BME280;27286;47.870;19.006;2023-10-31T08:26:54;98051.22;;;14.15;90.54
41573;BME280;27286;47.870;19.006;2023-10-31T08:29:19;98060.59;;;14.18;89.71
41573;BME280;27286;47.870;19.006;2023-10-31T08:31:45;98032.53;;;13.98;87.93
41573;BME280;27286;47.870;19.006;2023-10-31T08:34:10;98099.91;;;14.52;86.21
41573;BME280;27286;47.870;19.006;2023-10-31T08:36:36;98096.91;;;14.56;86.13
41573;BME280;27286;47.870;19.006;2023-10-31T08:39:02;97985.78;;;13.93;84.84
41573;BME280;27286;47.870;19.006;2023-10-31T08:41:28;98084.66;;;14.57;85.24
41573;BME280;27286;47.870;19.006;2023-10-31T08:43:54;98093.22;;;14.70;85.01
41573;BME280;27286;47.870;19.006;2023-10-31T08:46:19;98090.69;;;14.80;84.28
41573;BME280;27286;47.870;19.006;2023-10-31T08:48:45;98106.75;;;14.97;82.02
41573;BME280;27286;47.870;19.006;2023-10-31T08:51:10;98074.69;;;14.94;79.28
41573;BME280;27286;47.870;19.006;2023-10-31T08:53:36;98001.69;;;14.57;77.74
41573;BME280;27286;47.870;19.006;2023-10-31T08:56:01;98077.38;;;15.15;76.79
41573;BME280;27286;47.870;19.006;2023-10-31T08:58:27;98096.16;;;15.31;74.05
41573;BME280;27286;47.870;19.006;2023-10-31T09:00:53;98052.31;;;15.22;74.09
41573;BME280;27286;47.870;19.006;2023-10-31T09:03:19;98083.44;;;15.47;73.56
41573;BME280;27286;47.870;19.006;2023-10-31T09:05:44;98044.03;;;15.38;74.63
41573;BME280;27286;47.870;19.006;2023-10-31T09:08:10;98060.63;;;15.59;74.68
41573;BME280;27286;47.870;19.006;2023-10-31T09:10:36;98071.22;;;15.78;71.44
41573;BME280;27286;47.870;19.006;2023-10-31T09:13:05;98067.97;;;15.86;70.44
41573;BME280;27286;47.870;19.006;2023-10-31T09:15:30;98055.25;;;15.81;70.81
41573;BME280;27286;47.870;19.006;2023-10-31T09:17:56;98029.59;;;15.85;71.62
41573;BME280;27286;47.870;19.006;2023-10-31T09:20:21;98058.69;;;16.03;72.46
41573;BME280;27286;47.870;19.006;2023-10-31T09:22:46;98053.47;;;16.12;71.36
41573;BME280;27286;47.870;19.006;2023-10-31T09:25:12;98052.75;;;16.10;66.99
41573;BME280;27286;47.870;19.006;2023-10-31T09:27:40;98058.34;;;16.17;65.15
41573;BME280;27286;47.870;19.006;2023-10-31T09:30:06;98012.53;;;16.00;65.06
41573;BME280;27286;47.870;19.006;2023-10-31T09:32:31;98013.22;;;16.02;66.09
41573;BME280;27286;47.870;19.006;2023-10-31T09:34:57;98034.00;;;16.15;64.30
41573;BME280;27286;47.870;19.006;2023-10-31T09:37:23;98017.56;;;16.13;64.74
41573;BME280;27286;47.870;19.006;2023-10-31T09:39:48;98003.72;;;16.11;64.28
41573;BME280;27286;47.870;19.006;2023-10-31T09:42:14;98009.84;;;16.21;65.97
41573;BME280;27286;47.870;19.006;2023-10-31T09:44:39;97987.41;;;16.07;64.75
41573;BME280;27286;47.870;19.006;2023-10-31T09:47:06;97991.88;;;16.16;65.20
41573;BME280;27286;47.870;19.006;2023-10-31T09:49:31;98013.59;;;16.28;66.05
41573;BME280;27286;47.870;19.006;2023-10-31T09:51:57;98013.47;;;16.30;66.63
41573;BME280;27286;47.870;19.006;2023-10-31T09:54:25;98012.66;;;16.39;67.59
41573;BME280;27286;47.870;19.006;2023-10-31T09:56:51;98001.28;;;16.29;67.68
41573;BME280;27286;47.870;19.006;2023-10-31T09:59:17;97905.09;;;15.78;66.93
41573;BME280;27286;47.870;19.006;2023-10-31T10:01:42;98020.56;;;16.48;67.58
41573;BME280;27286;47.870;19.006;2023-10-31T10:04:08;98003.25;;;16.36;67.67
41573;BME280;27286;47.870;19.006;2023-10-31T10:06:34;97964.38;;;16.20;68.69
41573;BME280;27286;47.870;19.006;2023-10-31T10:09:00;97983.34;;;16.34;69.24
41573;BME280;27286;47.870;19.006;2023-10-31T10:11:28;97995.94;;;16.40;72.30
41573;BME280;27286;47.870;19.006;2023-10-31T10:13:54;98012.38;;;16.42;74.14
41573;BME280;27286;47.870;19.006;2023-10-31T10:16:32;98014.72;;;16.35;74.58
41573;BME280;27286;47.870;19.006;2023-10-31T10:19:18;97987.91;;;16.32;74.11
41573;BME280;27286;47.870;19.006;2023-10-31T10:21:49;97975.75;;;16.31;74.84
41573;BME280;27286;47.870;19.006;2023-10-31T10:24:16;97948.06;;;16.17;75.29
41573;BME280;27286;47.870;19.006;2023-10-31T10:26:41;97965.75;;;16.24;75.67
41573;BME280;27286;47.870;19.006;2023-10-31T10:29:07;97929.09;;;16.04;75.75
41573;BME280;27286;47.870;19.006;2023-10-31T10:31:32;97917.81;;;16.13;75.33
41573;BME280;27286;47.870;19.006;2023-10-31T10:33:58;97910.88;;;16.12;71.64
41573;BME280;27286;47.870;19.006;2023-10-31T10:36:25;97878.16;;;16.16;68.74
41573;BME280;27286;47.870;19.006;2023-10-31T10:38:56;97877.19;;;16.27;66.00
41573;BME280;27286;47.870;19.006;2023-10-31T10:41:25;97895.31;;;16.30;65.74
41573;BME280;27286;47.870;19.006;2023-10-31T10:44:05;97892.94;;;16.27;64.98
41573;BME280;27286;47.870;19.006;2023-10-31T10:46:35;97890.28;;;16.07;64.50
41573;BME280;27286;47.870;19.006;2023-10-31T10:49:05;97908.13;;;16.23;63.70
41573;BME280;27286;47.870;19.006;2023-10-31T10:51:43;97864.72;;;16.09;64.86
41573;BME280;27286;47.870;19.006;2023-10-31T10:54:17;97898.59;;;16.22;65.19
41573;BME280;27286;47.870;19.006;2023-10-31T10:56:52;97892.06;;;15.97;67.18
41573;BME280;27286;47.870;19.006;2023-10-31T10:59:21;97937.13;;;16.12;68.38
41573;BME280;27286;47.870;19.006;2023-10-31T11:01:52;97941.09;;;15.97;67.06
41573;BME280;27286;47.870;19.006;2023-10-31T11:04:18;97937.66;;;15.96;68.47
41573;BME280;27286;47.870;19.006;2023-10-31T11:06:44;97916.91;;;15.93;71.15
41573;BME280;27286;47.870;19.006;2023-10-31T11:09:10;97881.66;;;15.86;73.09
41573;BME280;27286;47.870;19.006;2023-10-31T11:11:38;97882.63;;;15.85;73.45
41573;BME280;27286;47.870;19.006;2023-10-31T11:14:04;97776.78;;;15.25;73.00
41573;BME280;27286;47.870;19.006;2023-10-31T11:16:52;97869.09;;;15.80;73.95
41573;BME280;27286;47.870;19.006;2023-10-31T11:19:19;97863.53;;;15.73;74.02
41573;BME280;27286;47.870;19.006;2023-10-31T11:21:59;97843.78;;;15.79;73.20
41573;BME280;27286;47.870;19.006;2023-10-31T11:24:31;97832.09;;;15.83;71.91
41573;BME280;27286;47.870;19.006;2023-10-31T11:27:01;97787.31;;;15.65;71.25
41573;BME280;27286;47.870;19.006;2023-10-31T11:29:27;97829.03;;;15.78;71.03
41573;BME280;27286;47.870;19.006;2023-10-31T11:31:55;97786.84;;;15.20;70.58
41573;BME280;27286;47.870;19.006;2023-10-31T11:34:26;97897.63;;;15.63;71.45
41573;BME280;27286;47.870;19.006;2023-10-31T11:36:52;97836.59;;;15.31;73.11
41573;BME280;27286;47.870;19.006;2023-10-31T11:39:19;97831.09;;;15.44;76.62
41573;BME280;27286;47.870;19.006;2023-10-31T11:41:54;97819.34;;;15.38;80.39
41573;BME280;27286;47.870;19.006;2023-10-31T11:44:25;97788.59;;;15.10;82.01
41573;BME280;27286;47.870;19.006;2023-10-31T11:46:51;97854.19;;;15.19;83.04
41573;BME280;27286;47.870;19.006;2023-10-31T11:52:02;97855.47;;;15.04;87.60
41573;BME280;27286;47.870;19.006;2023-10-31T11:54:27;97745.53;;;14.72;90.35
41573;BME280;27286;47.870;19.006;2023-10-31T11:56:53;97704.31;;;14.43;91.63
41573;BME280;27286;47.870;19.006;2023-10-31T11:59:18;97783.16;;;14.71;92.35
41573;BME280;27286;47.870;19.006;2023-10-31T12:01:47;97779.59;;;14.51;92.09
41573;BME280;27286;47.870;19.006;2023-10-31T12:04:22;97800.31;;;14.43;92.27
41573;BME280;27286;47.870;19.006;2023-10-31T12:06:57;97827.00;;;14.48;93.47
41573;BME280;27286;47.870;19.006;2023-10-31T12:09:23;97797.78;;;14.32;94.56
41573;BME280;27286;47.870;19.006;2023-10-31T12:11:49;97770.94;;;14.51;95.28
41573;BME280;27286;47.870;19.006;2023-10-31T12:14:18;97751.06;;;14.48;96.35
41573;BME280;27286;47.870;19.006;2023-10-31T12:16:44;97682.53;;;14.22;95.41
41573;BME280;27286;47.870;19.006;2023-10-31T12:19:09;97714.53;;;14.47;95.74
41573;BME280;27286;47.870;19.006;2023-10-31T12:21:45;97724.88;;;14.48;95.25
41573;BME280;27286;47.870;19.006;2023-10-31T12:24:14;97703.59;;;14.21;95.47
41573;BME280;27286;47.870;19.006;2023-10-31T12:26:40;97911.88;;;14.23;94.14
41573;BME280;27286;47.870;19.006;2023-10-31T12:29:13;97930.38;;;13.54;93.00
41573;BME280;27286;47.870;19.006;2023-10-31T12:31:41;97999.59;;;13.84;92.20
41573;BME280;27286;47.870;19.006;2023-10-31T12:34:07;98013.47;;;13.73;99.35
41573;BME280;27286;47.870;19.006;2023-10-31T12:36:34;97962.94;;;13.39;100.00
41573;BME280;27286;47.870;19.006;2023-10-31T12:39:01;97831.91;;;12.75;100.00
41573;BME280;27286;47.870;19.006;2023-10-31T12:41:27;97876.81;;;12.91;100.00
41573;BME280;27286;47.870;19.006;2023-10-31T12:43:53;97895.16;;;12.68;100.00
41573;BME280;27286;47.870;19.006;2023-10-31T12:46:28;98027.16;;;13.19;100.00
41573;BME280;27286;47.870;19.006;2023-10-31T12:48:56;97976.47;;;12.98;100.00